Time;durP1;ratioP1;P1;durP2;ratioP2;P2;SDS_P1;SDS_P2;PMS_P1;PMS_P2;Temp;Humidity;BMP_temperature;BMP_pressure;BME280_temperature;BME280_humidity;BME280_pressure;Samples;Min_cycle;Max_cycle;Signal;HPM_P1;HPM_P2
2021/06/12 00:00:32;;;;;;;6.83;6.33;;;20.30;99.90;;;;;;5033255;28;20289;-72
2021/06/12 00:02:59;;;;;;;8.13;7.47;;;20.20;99.90;;;;;;5030216;28;20715;-73
2021/06/12 00:05:26;;;;;;;6.70;6.17;;;20.20;99.90;;;;;;5028518;28;20438;-73
2021/06/12 00:07:52;;;;;;;8.17;7.33;;;20.30;99.90;;;;;;5025561;28;20458;-73
2021/06/12 00:10:24;;;;;;;6.73;6.33;;;20.30;99.90;;;;;;5040276;28;20968;-72
2021/06/12 00:12:50;;;;;;;7.33;6.77;;;20.30;99.90;;;;;;5025918;28;20222;-73
2021/06/12 00:15:18;;;;;;;7.53;6.97;;;20.20;99.90;;;;;;5040322;28;20804;-73
2021/06/12 00:17:43;;;;;;;7.50;6.90;;;20.20;99.90;;;;;;5031192;28;20469;-73
2021/06/12 00:20:17;;;;;;;7.57;7.00;;;20.20;99.90;;;;;;5030157;28;20442;-74
2021/06/12 00:22:43;;;;;;;9.37;7.63;;;20.20;99.90;;;;;;5018409;28;20240;-72
2021/06/12 00:25:10;;;;;;;8.00;7.40;;;20.20;99.90;;;;;;5032268;28;20438;-72
2021/06/12 00:27:39;;;;;;;7.53;6.90;;;20.20;99.90;;;;;;5039113;28;20441;-73
2021/06/12 00:30:06;;;;;;;7.33;6.83;;;20.10;99.90;;;;;;5023749;28;20446;-73
2021/06/12 00:32:31;;;;;;;7.53;6.93;;;20.10;99.90;;;;;;5037593;28;20887;-73
2021/06/12 00:34:57;;;;;;;8.30;7.50;;;20.10;99.90;;;;;;5032008;28;20534;-74
2021/06/12 00:37:22;;;;;;;7.63;7.13;;;20.00;99.90;;;;;;5029572;28;20230;-73
2021/06/12 00:39:48;;;;;;;7.03;6.63;;;20.10;99.90;;;;;;5023484;28;20195;-74
2021/06/12 00:42:14;;;;;;;7.47;6.87;;;20.00;99.90;;;;;;5033540;28;20255;-74
2021/06/12 00:44:39;;;;;;;7.47;6.87;;;19.90;99.90;;;;;;5034358;28;20563;-74
2021/06/12 00:47:06;;;;;;;7.43;6.93;;;20.00;99.90;;;;;;5034628;28;20194;-73
2021/06/12 00:49:31;;;;;;;8.07;7.37;;;19.90;99.90;;;;;;5027014;28;20270;-74
2021/06/12 00:51:57;;;;;;;7.67;7.17;;;19.90;99.90;;;;;;5023438;28;20555;-73
2021/06/12 00:54:22;;;;;;;8.30;7.70;;;19.90;99.90;;;;;;5034848;28;20195;-73
2021/06/12 00:56:48;;;;;;;7.93;7.30;;;19.90;99.90;;;;;;5030586;28;20695;-73
2021/06/12 00:59:13;;;;;;;8.13;7.43;;;19.90;99.90;;;;;;5035831;28;20748;-73
2021/06/12 01:01:39;;;;;;;8.00;7.30;;;19.90;99.90;;;;;;5031040;28;20613;-72
2021/06/12 01:04:05;;;;;;;7.43;6.83;;;19.90;99.90;;;;;;5032513;28;20194;-73
2021/06/12 01:06:31;;;;;;;7.90;7.17;;;19.80;99.90;;;;;;5035258;28;20195;-73
2021/06/12 01:08:56;;;;;;;7.10;6.60;;;19.80;99.90;;;;;;5034882;28;20450;-72
2021/06/12 01:11:22;;;;;;;8.60;7.90;;;19.80;99.90;;;;;;5028755;28;20238;-72
2021/06/12 01:14:29;;;;;;;7.57;7.03;;;19.80;99.90;;;;;;5031870;28;20201;-73
2021/06/12 01:17:01;;;;;;;8.50;7.90;;;19.90;99.90;;;;;;4945761;28;20229;-73
2021/06/12 01:19:57;;;;;;;7.63;7.13;;;19.80;99.90;;;;;;4938731;29;20958;-72
2021/06/12 01:22:28;;;;;;;6.60;6.10;;;19.80;99.90;;;;;;4941722;28;20547;-72
2021/06/12 01:25:04;;;;;;;8.70;7.90;;;19.70;99.90;;;;;;4949893;28;20843;-73
2021/06/12 01:28:04;;;;;;;8.03;7.43;;;19.70;99.90;;;;;;4928417;29;20444;-72
2021/06/12 01:30:32;;;;;;;8.30;7.53;;;19.70;99.90;;;;;;4934460;28;20454;-73
2021/06/12 01:33:04;;;;;;;8.77;8.07;;;19.70;99.90;;;;;;4954194;28;20433;-73
2021/06/12 01:35:35;;;;;;;8.13;7.43;;;19.60;99.90;;;;;;4944546;28;20444;-73
2021/06/12 01:38:04;;;;;;;8.40;7.70;;;19.60;99.90;;;;;;4949997;28;20481;-73
2021/06/12 01:40:32;;;;;;;7.33;6.80;;;19.60;99.90;;;;;;4951907;28;20835;-73
2021/06/12 01:42:59;;;;;;;8.40;7.47;;;19.60;99.90;;;;;;4926437;29;20434;-71
2021/06/12 01:45:25;;;;;;;8.63;8.03;;;19.60;99.90;;;;;;4956909;28;20463;-72
2021/06/12 01:47:52;;;;;;;8.30;7.60;;;19.60;99.90;;;;;;4937133;28;20458;-72
2021/06/12 01:50:20;;;;;;;7.70;7.20;;;19.60;99.90;;;;;;4957598;28;20516;-73
2021/06/12 01:52:47;;;;;;;7.77;7.23;;;19.60;99.90;;;;;;4965869;28;20856;-72
2021/06/12 01:55:15;;;;;;;8.40;7.70;;;19.50;99.90;;;;;;5037988;28;20544;-72
2021/06/12 01:57:42;;;;;;;7.93;7.33;;;19.50;99.90;;;;;;5038279;28;20473;-72
2021/06/12 02:00:10;;;;;;;8.40;7.80;;;19.50;99.90;;;;;;5040202;28;20788;-73
2021/06/12 02:02:38;;;;;;;7.93;7.23;;;19.50;99.90;;;;;;5034747;28;20998;-72
2021/06/12 02:05:04;;;;;;;8.77;8.10;;;19.50;99.90;;;;;;5038444;28;20524;-73
2021/06/12 02:07:32;;;;;;;7.57;7.07;;;19.50;99.90;;;;;;5038586;28;20464;-73
2021/06/12 02:09:59;;;;;;;8.77;8.17;;;19.50;99.90;;;;;;5041885;28;20444;-73
2021/06/12 02:12:28;;;;;;;8.63;7.87;;;19.50;99.90;;;;;;5032346;28;20448;-71
2021/06/12 02:14:58;;;;;;;8.00;7.43;;;19.50;99.90;;;;;;5034325;28;20444;-72
2021/06/12 02:17:25;;;;;;;8.23;7.50;;;19.50;99.90;;;;;;5026066;28;20460;-73
2021/06/12 02:19:51;;;;;;;8.40;7.90;;;19.40;99.90;;;;;;5032886;28;20430;-72
2021/06/12 02:22:18;;;;;;;8.33;7.73;;;19.40;99.90;;;;;;5037842;28;20467;-72
2021/06/12 02:24:44;;;;;;;8.33;7.73;;;19.40;99.90;;;;;;5036086;28;20257;-72
2021/06/12 02:27:10;;;;;;;7.67;7.07;;;19.50;99.90;;;;;;5041533;28;20438;-74
2021/06/12 02:29:37;;;;;;;9.13;8.43;;;19.40;99.90;;;;;;5035679;28;20457;-73
2021/06/12 02:32:09;;;;;;;8.10;7.50;;;19.40;99.90;;;;;;5039210;28;20465;-73
2021/06/12 02:34:37;;;;;;;7.30;6.80;;;19.40;99.90;;;;;;5036018;28;20483;-72
2021/06/12 02:37:05;;;;;;;8.70;7.87;;;19.30;99.90;;;;;;5033288;28;20545;-72
2021/06/12 02:39:31;;;;;;;9.03;8.43;;;19.30;99.90;;;;;;5034070;28;20430;-73
2021/06/12 02:41:56;;;;;;;7.87;7.27;;;19.30;99.90;;;;;;5036478;28;20443;-72
2021/06/12 02:44:22;;;;;;;8.40;7.80;;;19.30;99.90;;;;;;5036800;28;20484;-72
2021/06/12 02:46:48;;;;;;;8.00;7.40;;;19.20;99.90;;;;;;5018913;28;20195;-72
2021/06/12 02:49:18;;;;;;;9.27;8.57;;;19.30;99.90;;;;;;5018206;28;20233;-71
2021/06/12 02:51:48;;;;;;;8.23;7.63;;;19.20;99.90;;;;;;5031897;28;20449;-73
2021/06/12 02:54:15;;;;;;;7.87;7.23;;;19.20;99.90;;;;;;5034556;28;20412;-73
2021/06/12 02:56:43;;;;;;;8.00;7.40;;;19.20;99.90;;;;;;5024403;28;20470;-73
2021/06/12 02:59:15;;;;;;;8.30;7.70;;;19.20;99.90;;;;;;5034736;28;20517;-73
2021/06/12 03:01:42;;;;;;;8.07;7.47;;;19.20;99.90;;;;;;5030814;28;20984;-73
2021/06/12 03:04:12;;;;;;;8.00;7.33;;;19.10;99.90;;;;;;5029177;28;20848;-74
2021/06/12 03:06:39;;;;;;;8.47;7.87;;;19.10;99.90;;;;;;5032445;28;20459;-74
2021/06/12 03:09:06;;;;;;;8.50;7.93;;;19.00;99.90;;;;;;5030983;28;20531;-73
2021/06/12 03:11:33;;;;;;;8.07;7.30;;;19.00;99.90;;;;;;5031004;28;20545;-73
2021/06/12 03:14:01;;;;;;;8.27;7.57;;;19.00;99.90;;;;;;5034015;28;20784;-73
2021/06/12 03:16:27;;;;;;;8.00;7.40;;;18.90;99.90;;;;;;5039359;28;20825;-72
2021/06/12 03:18:54;;;;;;;9.03;8.30;;;18.90;99.90;;;;;;5036677;28;20810;-73
2021/06/12 03:21:24;;;;;;;9.60;8.73;;;18.90;99.90;;;;;;5023447;28;20470;-73
2021/06/12 03:23:51;;;;;;;9.20;8.50;;;18.90;99.90;;;;;;5037298;28;21125;-72
2021/06/12 03:26:18;;;;;;;8.90;8.17;;;18.90;99.90;;;;;;5029022;28;20433;-73
2021/06/12 03:28:44;;;;;;;9.47;8.77;;;18.90;99.90;;;;;;5036880;28;20512;-73
2021/06/12 03:31:10;;;;;;;9.20;8.30;;;18.90;99.90;;;;;;5031923;28;20453;-73
2021/06/12 03:33:36;;;;;;;9.67;8.77;;;18.90;99.90;;;;;;5038485;28;20429;-73
2021/06/12 03:36:03;;;;;;;7.20;6.60;;;18.90;99.90;;;;;;5034138;28;20934;-73
2021/06/12 03:38:30;;;;;;;8.37;7.73;;;18.80;99.90;;;;;;5014092;28;20306;-71
2021/06/12 03:40:57;;;;;;;8.13;7.50;;;18.80;99.90;;;;;;5033720;28;20447;-73
2021/06/12 03:43:24;;;;;;;9.47;8.67;;;18.70;99.90;;;;;;5042224;28;20421;-72
2021/06/12 03:45:54;;;;;;;9.83;7.93;;;18.70;99.90;;;;;;5040892;28;20989;-72
2021/06/12 03:48:21;;;;;;;8.43;7.80;;;18.70;99.90;;;;;;5030258;28;20809;-70
2021/06/12 03:50:49;;;;;;;8.93;8.00;;;18.70;99.90;;;;;;5026477;28;20484;-72
2021/06/12 03:53:15;;;;;;;9.80;9.10;;;18.70;99.90;;;;;;5034482;28;20499;-72
2021/06/12 03:55:41;;;;;;;10.20;9.30;;;18.80;99.90;;;;;;5025418;28;20518;-72
2021/06/12 03:58:06;;;;;;;8.70;8.00;;;18.90;99.90;;;;;;5041109;28;20952;-72
2021/06/12 04:00:32;;;;;;;9.53;8.83;;;18.90;99.90;;;;;;5019368;28;20249;-72
2021/06/12 04:02:58;;;;;;;9.60;9.00;;;18.90;99.90;;;;;;5030367;28;20187;-74
2021/06/12 04:05:24;;;;;;;10.27;9.47;;;18.90;99.90;;;;;;5040366;28;20215;-73
2021/06/12 04:07:49;;;;;;;9.50;8.70;;;19.00;99.90;;;;;;5030948;28;20198;-73
2021/06/12 04:10:15;;;;;;;9.40;8.80;;;19.00;99.90;;;;;;5039063;28;20183;-73
2021/06/12 04:12:41;;;;;;;9.83;9.13;;;18.90;99.90;;;;;;5031447;28;20212;-73
2021/06/12 04:15:07;;;;;;;9.70;9.00;;;18.90;99.90;;;;;;5032784;28;20199;-72
2021/06/12 04:17:33;;;;;;;8.97;8.37;;;19.00;99.90;;;;;;5029237;28;20256;-73
2021/06/12 04:19:59;;;;;;;9.60;8.90;;;19.10;99.90;;;;;;5018936;28;20486;-73
2021/06/12 04:22:25;;;;;;;9.60;8.80;;;19.10;99.90;;;;;;5070417;22;20584;-68
2021/06/12 04:24:51;;;;;;;9.47;8.70;;;19.20;99.90;;;;;;5064142;28;20614;-69
2021/06/12 04:27:16;;;;;;;10.23;9.47;;;19.20;99.90;;;;;;5063918;28;20467;-68
2021/06/12 04:29:42;;;;;;;9.93;9.00;;;19.30;99.90;;;;;;5063357;28;20193;-68
2021/06/12 04:32:07;;;;;;;9.80;9.00;;;19.30;99.90;;;;;;5056168;28;20296;-69
2021/06/12 04:34:33;;;;;;;9.87;9.27;;;19.20;99.90;;;;;;5046687;28;20229;-69
2021/06/12 04:37:02;;;;;;;9.77;9.07;;;19.30;99.90;;;;;;5047220;28;20227;-68
2021/06/12 04:39:27;;;;;;;9.50;8.80;;;19.30;99.90;;;;;;5045927;28;20200;-69
2021/06/12 04:41:53;;;;;;;10.07;9.37;;;19.30;99.90;;;;;;5040308;28;20433;-68
2021/06/12 04:44:18;;;;;;;10.13;9.40;;;19.40;99.90;;;;;;5046477;28;20193;-69
2021/06/12 04:46:44;;;;;;;10.33;9.43;;;19.50;99.90;;;;;;5047775;28;20203;-67
2021/06/12 04:49:10;;;;;;;9.20;8.53;;;19.50;99.90;;;;;;5039956;28;20200;-70
2021/06/12 04:51:36;;;;;;;8.53;7.83;;;19.60;99.90;;;;;;5048664;28;20349;-68
2021/06/12 04:54:02;;;;;;;8.67;7.93;;;19.60;99.90;;;;;;5047109;28;20170;-68
2021/06/12 04:56:28;;;;;;;9.10;8.50;;;19.60;99.90;;;;;;5045306;28;20416;-69
2021/06/12 04:58:53;;;;;;;8.67;7.87;;;19.70;99.90;;;;;;5044705;28;20457;-68
2021/06/12 05:01:19;;;;;;;9.90;8.90;;;19.80;99.90;;;;;;5061967;28;20209;-69
2021/06/12 05:03:44;;;;;;;9.53;8.80;;;19.80;99.90;;;;;;5063358;28;20214;-71
2021/06/12 05:06:10;;;;;;;8.87;8.17;;;19.90;99.90;;;;;;5062016;28;20236;-72
2021/06/12 05:08:35;;;;;;;8.43;7.90;;;20.00;99.90;;;;;;5052534;28;20187;-72
2021/06/12 05:11:01;;;;;;;9.00;8.30;;;20.00;99.90;;;;;;5054973;28;20578;-73
2021/06/12 05:13:27;;;;;;;8.03;7.40;;;20.00;99.90;;;;;;5058394;28;20185;-67
2021/06/12 05:15:52;;;;;;;9.03;8.30;;;20.20;99.90;;;;;;5054643;28;20206;-66
2021/06/12 05:18:18;;;;;;;8.63;7.93;;;20.30;99.90;;;;;;5050046;28;20589;-73
2021/06/12 05:20:44;;;;;;;8.67;8.07;;;20.30;99.90;;;;;;5055994;28;20287;-77
2021/06/12 05:23:10;;;;;;;9.17;8.37;;;20.30;99.90;;;;;;5054163;28;20216;-77
2021/06/12 05:25:36;;;;;;;8.27;7.57;;;20.50;99.90;;;;;;5054663;28;20700;-77
2021/06/12 05:28:03;;;;;;;10.70;7.50;;;20.40;99.90;;;;;;5052805;28;20181;-76
2021/06/12 05:30:28;;;;;;;7.90;7.20;;;20.50;99.90;;;;;;5046577;28;20802;-76
2021/06/12 05:32:54;;;;;;;7.90;7.20;;;20.50;99.90;;;;;;5050767;28;20459;-77
2021/06/12 05:35:20;;;;;;;7.73;7.13;;;20.50;99.90;;;;;;5046996;28;20198;-76
2021/06/12 05:37:46;;;;;;;8.13;7.43;;;20.50;99.90;;;;;;5055366;28;20210;-76
2021/06/12 05:40:12;;;;;;;7.50;6.80;;;20.50;99.90;;;;;;5049338;28;20549;-75
2021/06/12 05:42:38;;;;;;;7.57;6.97;;;20.60;99.90;;;;;;5060086;28;20251;-76
2021/06/12 05:45:07;;;;;;;7.00;6.50;;;20.60;99.90;;;;;;5054823;28;20435;-76
2021/06/12 05:47:33;;;;;;;7.70;7.10;;;20.60;99.90;;;;;;5050991;28;20212;-76
2021/06/12 05:49:58;;;;;;;7.10;6.40;;;20.70;99.90;;;;;;5057684;28;20482;-76
2021/06/12 05:52:24;;;;;;;6.80;6.30;;;20.80;99.90;;;;;;5050698;28;20436;-76
2021/06/12 05:54:50;;;;;;;6.10;5.70;;;20.80;99.90;;;;;;5055463;28;20187;-76
2021/06/12 05:57:16;;;;;;;7.30;6.70;;;20.80;99.90;;;;;;5051032;28;20230;-77
2021/06/12 05:59:41;;;;;;;6.10;5.60;;;20.80;99.90;;;;;;5058062;28;20205;-76
2021/06/12 06:02:07;;;;;;;6.00;5.50;;;20.90;99.90;;;;;;5047203;28;20682;-77
2021/06/12 06:04:32;;;;;;;7.23;6.63;;;20.70;99.90;;;;;;5052791;28;20204;-76
2021/06/12 06:06:58;;;;;;;6.67;6.20;;;20.80;99.90;;;;;;5052329;28;20189;-75
2021/06/12 06:09:24;;;;;;;9.50;7.53;;;20.80;99.90;;;;;;5054532;28;20266;-78
2021/06/12 06:11:49;;;;;;;7.30;6.60;;;20.80;99.90;;;;;;5052318;28;20210;-78
2021/06/12 06:14:15;;;;;;;6.63;6.03;;;20.80;99.90;;;;;;5051014;28;20208;-78
2021/06/12 06:16:41;;;;;;;7.03;6.30;;;20.80;99.90;;;;;;5055013;28;20616;-77
2021/06/12 06:19:07;;;;;;;7.17;6.67;;;20.80;99.90;;;;;;5056715;28;20481;-77
2021/06/12 06:21:32;;;;;;;7.03;6.43;;;21.00;99.90;;;;;;5055065;28;20222;-78
2021/06/12 06:23:58;;;;;;;7.40;6.80;;;21.10;99.90;;;;;;5052928;28;20273;-79
2021/06/12 06:26:23;;;;;;;6.87;6.37;;;21.20;99.90;;;;;;5052383;28;20304;-78
2021/06/12 06:28:49;;;;;;;7.10;6.40;;;21.20;99.90;;;;;;5060909;28;20201;-77
2021/06/12 06:31:15;;;;;;;6.97;6.37;;;21.20;99.90;;;;;;5074347;28;20234;-77
2021/06/12 06:33:40;;;;;;;7.83;6.57;;;21.10;99.90;;;;;;5065951;28;20240;-78
2021/06/12 06:36:06;;;;;;;8.77;7.97;;;21.10;99.90;;;;;;5050206;28;20260;-77
2021/06/12 06:38:32;;;;;;;7.97;7.37;;;21.10;99.90;;;;;;5051303;28;20214;-78
2021/06/12 06:40:57;;;;;;;7.90;7.20;;;21.20;99.90;;;;;;5045817;28;20198;-77
2021/06/12 06:43:23;;;;;;;7.67;6.90;;;21.30;99.90;;;;;;5059755;28;20198;-77
2021/06/12 06:45:49;;;;;;;8.00;6.80;;;21.40;99.90;;;;;;5070667;28;20198;-77
2021/06/12 06:48:16;;;;;;;7.90;7.10;;;21.50;99.90;;;;;;5082504;28;20171;-77
2021/06/12 06:50:42;;;;;;;6.60;5.90;;;21.60;99.90;;;;;;5094001;28;20174;-78
2021/06/12 06:53:09;;;;;;;8.40;7.60;;;21.70;99.90;;;;;;5084983;28;20443;-78
2021/06/12 06:55:35;;;;;;;7.97;7.17;;;21.80;99.90;;;;;;5070640;28;20467;-77
2021/06/12 06:58:01;;;;;;;8.27;7.47;;;21.90;99.90;;;;;;5060005;28;21023;-77
2021/06/12 07:00:27;;;;;;;7.77;7.00;;;22.10;99.90;;;;;;5054879;28;20470;-78
2021/06/12 07:02:53;;;;;;;7.87;7.17;;;22.30;99.90;;;;;;5057464;28;20297;-78
2021/06/12 07:05:20;;;;;;;8.90;7.33;;;22.40;99.90;;;;;;5050114;28;20425;-78
2021/06/12 07:07:45;;;;;;;9.33;8.43;;;22.40;99.90;;;;;;5049492;28;20421;-77
2021/06/12 07:10:11;;;;;;;8.87;8.07;;;22.20;99.90;;;;;;5049296;28;20484;-77
2021/06/12 07:12:37;;;;;;;8.00;6.97;;;22.30;99.90;;;;;;5050420;28;20202;-77
2021/06/12 07:15:04;;;;;;;8.37;7.50;;;22.30;99.90;;;;;;5049845;28;20989;-78
2021/06/12 07:17:29;;;;;;;7.70;7.00;;;22.40;99.90;;;;;;5047177;28;20567;-77
2021/06/12 07:19:55;;;;;;;8.63;7.57;;;22.30;99.90;;;;;;5055038;28;20431;-78
2021/06/12 07:22:21;;;;;;;8.17;7.07;;;22.40;99.90;;;;;;5056328;28;20215;-78
2021/06/12 07:24:46;;;;;;;7.83;7.13;;;22.40;99.90;;;;;;5051491;28;20202;-78
2021/06/12 07:27:13;;;;;;;7.47;6.77;;;22.40;99.90;;;;;;5052512;28;20270;-78
2021/06/12 07:29:38;;;;;;;7.90;7.00;;;22.40;99.90;;;;;;5048294;28;20189;-78
2021/06/12 07:32:05;;;;;;;7.30;6.60;;;22.50;99.90;;;;;;5046895;28;20461;-78
2021/06/12 07:34:31;;;;;;;7.30;6.20;;;22.60;99.90;;;;;;5048363;28;20260;-77
2021/06/12 07:36:56;;;;;;;7.43;6.83;;;22.50;99.90;;;;;;5049692;28;20477;-78
2021/06/12 07:39:22;;;;;;;9.47;7.20;;;22.50;99.90;;;;;;5058673;28;20680;-77
2021/06/12 07:41:47;;;;;;;8.43;7.00;;;22.40;99.90;;;;;;5055253;28;20252;-79
2021/06/12 07:44:13;;;;;;;8.53;7.83;;;22.40;99.90;;;;;;5051992;28;20181;-77
2021/06/12 07:46:39;;;;;;;8.97;8.17;;;22.50;99.90;;;;;;5051626;28;20181;-77
2021/06/12 07:49:04;;;;;;;6.97;6.37;;;22.40;99.90;;;;;;5047366;28;20187;-77
2021/06/12 07:51:33;;;;;;;6.87;5.90;;;22.60;99.90;;;;;;5041366;28;20642;-77
2021/06/12 07:53:59;;;;;;;8.67;7.87;;;22.70;99.90;;;;;;5048686;28;20528;-77
2021/06/12 07:56:25;;;;;;;10.20;7.87;;;22.70;99.90;;;;;;5043150;28;20933;-77
2021/06/12 07:58:51;;;;;;;10.30;7.70;;;22.70;99.90;;;;;;5049690;28;20526;-77
2021/06/12 08:01:16;;;;;;;8.60;7.73;;;22.60;99.90;;;;;;5047809;28;20199;-77
2021/06/12 08:03:42;;;;;;;8.93;8.13;;;22.80;99.90;;;;;;5052448;28;20196;-77
2021/06/12 08:06:08;;;;;;;10.20;8.50;;;22.90;99.90;;;;;;5054590;28;20651;-77
2021/06/12 08:08:33;;;;;;;9.27;8.13;;;23.10;99.90;;;;;;5047569;28;20191;-77
2021/06/12 08:10:59;;;;;;;8.67;7.87;;;23.00;99.90;;;;;;5048961;28;20662;-77
2021/06/12 08:13:25;;;;;;;8.67;7.87;;;23.00;99.90;;;;;;5054031;28;20529;-77
2021/06/12 08:15:50;;;;;;;8.97;8.17;;;23.00;99.90;;;;;;5049265;28;20197;-77
2021/06/12 08:18:16;;;;;;;8.87;8.00;;;23.10;99.90;;;;;;5048183;28;20201;-79
2021/06/12 08:20:41;;;;;;;9.43;7.67;;;23.20;99.90;;;;;;5050430;28;20174;-77
2021/06/12 08:23:07;;;;;;;11.50;8.70;;;23.40;99.90;;;;;;5046635;28;20722;-77
2021/06/12 08:25:33;;;;;;;9.53;8.63;;;23.40;99.90;;;;;;5042595;28;20553;-78
2021/06/12 08:28:05;;;;;;;10.63;9.57;;;23.40;99.90;;;;;;5044139;28;20179;-78
2021/06/12 08:30:35;;;;;;;11.40;7.33;;;23.40;99.90;;;;;;5046026;28;20691;-78
2021/06/12 08:33:02;;;;;;;10.00;9.10;;;23.40;99.90;;;;;;5046956;28;20443;-77
2021/06/12 08:35:27;;;;;;;9.10;8.20;;;23.40;99.90;;;;;;5052096;28;20440;-78
2021/06/12 08:37:53;;;;;;;11.77;10.10;;;23.40;99.90;;;;;;5047923;28;20904;-77
2021/06/12 08:40:18;;;;;;;12.23;11.03;;;23.60;99.90;;;;;;5047793;28;20181;-79
2021/06/12 08:42:48;;;;;;;11.70;10.50;;;23.50;99.90;;;;;;5049831;28;20194;-77
2021/06/12 08:45:16;;;;;;;10.30;9.23;;;23.50;99.90;;;;;;5050925;28;20201;-78
2021/06/12 08:47:42;;;;;;;11.87;9.80;;;23.40;99.90;;;;;;5054422;28;20879;-78
2021/06/12 08:50:09;;;;;;;10.70;9.23;;;23.50;99.90;;;;;;5055118;28;20433;-79
2021/06/12 08:52:36;;;;;;;11.07;9.67;;;23.70;99.90;;;;;;5050179;28;20492;-77
2021/06/12 08:55:07;;;;;;;11.07;10.03;;;23.50;99.90;;;;;;5048762;28;20527;-78
2021/06/12 08:57:32;;;;;;;10.33;9.10;;;23.40;99.90;;;;;;5038090;28;21020;-77
2021/06/12 08:59:58;;;;;;;11.10;8.90;;;23.50;99.90;;;;;;5041575;28;20433;-77
2021/06/12 09:02:24;;;;;;;10.13;9.03;;;23.50;99.90;;;;;;5049821;28;20206;-76
2021/06/12 09:04:53;;;;;;;10.30;9.20;;;23.40;99.90;;;;;;5041570;28;20218;-76
2021/06/12 09:07:34;;;;;;;9.60;8.67;;;23.40;99.90;;;;;;5064565;28;20242;-76
2021/06/12 09:10:00;;;;;;;10.90;9.80;;;23.50;99.90;;;;;;5070428;28;20524;-77
2021/06/12 09:12:45;;;;;;;11.80;10.60;;;23.50;99.90;;;;;;5047866;28;20485;-77
2021/06/12 09:15:13;;;;;;;11.13;9.13;;;23.60;99.90;;;;;;5052360;28;20193;-78
2021/06/12 09:17:40;;;;;;;12.77;10.47;;;23.80;99.90;;;;;;5045840;28;20961;-77
2021/06/12 09:20:08;;;;;;;9.97;8.90;;;23.90;99.90;;;;;;5049707;28;20540;-80
2021/06/12 09:22:34;;;;;;;10.90;9.30;;;23.90;99.90;;;;;;5046461;28;20452;-78
2021/06/12 09:24:59;;;;;;;10.23;9.20;;;23.80;99.90;;;;;;5057846;28;20434;-77
2021/06/12 09:27:25;;;;;;;9.00;8.20;;;23.70;99.90;;;;;;5038832;28;20270;-77
2021/06/12 09:29:52;;;;;;;14.23;8.93;;;23.80;99.90;;;;;;5050630;28;20210;-77
2021/06/12 09:32:29;;;;;;;8.73;7.90;;;23.80;99.90;;;;;;5047797;28;20226;-79
2021/06/12 09:35:05;;;;;;;9.83;8.13;;;24.00;99.90;;;;;;5048559;28;20962;-79
2021/06/12 09:37:32;;;;;;;10.80;8.07;;;24.00;99.90;;;;;;5040198;28;20544;-77
2021/06/12 09:40:12;;;;;;;7.43;6.10;;;24.10;99.90;;;;;;5046936;28;20428;-78
2021/06/12 09:42:54;;;;;;;5.97;5.50;;;24.10;99.90;;;;;;5047330;28;20455;-77
2021/06/12 09:45:22;;;;;;;7.30;6.60;;;24.10;99.90;;;;;;5055385;28;20549;-80
2021/06/12 09:47:48;;;;;;;6.67;4.93;;;24.00;99.90;;;;;;5072273;28;20438;-78
2021/06/12 09:50:19;;;;;;;6.33;5.83;;;24.00;99.90;;;;;;5064267;28;20425;-79
2021/06/12 09:52:46;;;;;;;7.13;6.43;;;24.10;99.90;;;;;;5042232;28;20214;-79
2021/06/12 09:55:29;;;;;;;6.90;6.30;;;24.20;99.90;;;;;;5047344;28;20445;-77
2021/06/12 09:57:57;;;;;;;9.33;7.00;;;24.30;99.90;;;;;;5045316;28;20464;-76
2021/06/12 10:00:33;;;;;;;7.13;6.50;;;24.40;99.90;;;;;;5050193;28;20475;-80
2021/06/12 10:02:59;;;;;;;6.87;6.33;;;24.60;99.90;;;;;;5051855;28;20985;-79
2021/06/12 10:05:27;;;;;;;6.87;6.20;;;24.70;99.90;;;;;;5041977;28;20455;-77
2021/06/12 10:07:53;;;;;;;6.50;5.90;;;24.70;99.90;;;;;;5048286;28;20549;-77
2021/06/12 10:10:18;;;;;;;7.40;6.80;;;25.00;99.90;;;;;;5048013;28;20522;-77
2021/06/12 10:12:46;;;;;;;7.17;6.43;;;25.10;99.90;;;;;;5050322;28;20558;-77
2021/06/12 10:15:13;;;;;;;6.73;6.20;;;25.20;99.90;;;;;;5055426;28;20196;-76
2021/06/12 10:17:51;;;;;;;8.00;7.00;;;25.20;99.90;;;;;;5050433;28;20619;-77
2021/06/12 10:20:19;;;;;;;6.63;6.00;;;25.20;99.90;;;;;;5040660;28;20421;-78
2021/06/12 10:22:45;;;;;;;7.17;6.57;;;25.10;99.90;;;;;;5069541;22;20503;-78
2021/06/12 10:25:14;;;;;;;7.50;6.80;;;25.00;99.90;;;;;;5050557;28;20751;-79
2021/06/12 10:27:41;;;;;;;6.50;5.90;;;24.90;99.90;;;;;;5049348;28;20421;-79
2021/06/12 10:30:07;;;;;;;6.60;6.00;;;25.00;99.90;;;;;;5035337;28;20434;-78
2021/06/12 10:32:34;;;;;;;6.73;6.23;;;25.10;99.90;;;;;;5040223;28;20449;-79
2021/06/12 10:35:03;;;;;;;6.60;6.00;;;25.00;99.90;;;;;;5020663;28;20805;-79
2021/06/12 10:37:59;;;;;;;5.80;5.30;;;25.10;99.90;;;;;;5016821;28;20545;-80
2021/06/12 10:40:49;;;;;;;5.80;5.30;;;25.00;99.90;;;;;;5022291;28;20425;-79
2021/06/12 10:43:21;;;;;;;4.40;4.10;;;25.00;99.90;;;;;;5023944;28;20498;-79
2021/06/12 10:46:02;;;;;;;4.83;4.53;;;25.00;99.90;;;;;;5032880;28;20527;-80
2021/06/12 10:48:37;;;;;;;4.73;4.33;;;24.90;99.90;;;;;;5032392;28;20506;-77
2021/06/12 10:51:06;;;;;;;3.70;3.50;;;24.90;99.90;;;;;;5041121;28;20422;-77
2021/06/12 10:53:36;;;;;;;3.60;3.30;;;25.00;99.90;;;;;;5028318;28;20443;-77
2021/06/12 10:56:05;;;;;;;3.60;3.30;;;25.20;99.90;;;;;;5032906;28;20424;-79
2021/06/12 10:58:34;;;;;;;2.83;2.63;;;25.30;99.90;;;;;;5030389;28;20522;-79
2021/06/12 11:01:19;;;;;;;3.00;2.50;;;25.20;99.90;;;;;;5014966;28;20550;-80
2021/06/12 11:03:57;;;;;;;3.43;3.13;;;25.10;99.90;;;;;;5020572;28;20458;-78
2021/06/12 11:06:57;;;;;;;2.80;2.60;;;25.30;99.90;;;;;;5026568;28;20832;-76
2021/06/12 11:09:32;;;;;;;2.37;2.17;;;25.30;99.90;;;;;;5027306;28;20411;-79
2021/06/12 11:12:13;;;;;;;2.97;2.77;;;25.50;99.90;;;;;;5019629;28;20445;-80
2021/06/12 11:14:39;;;;;;;2.80;2.60;;;25.60;99.90;;;;;;5018117;28;20438;-79
2021/06/12 11:17:08;;;;;;;2.40;2.30;;;25.40;99.90;;;;;;5017881;28;20458;-78
2021/06/12 11:19:44;;;;;;;2.47;2.27;;;25.40;99.90;;;;;;5025191;28;20209;-80
2021/06/12 11:22:30;;;;;;;2.60;1.50;;;25.60;99.90;;;;;;5029219;28;20505;-79
2021/06/12 11:25:00;;;;;;;2.20;1.80;;;25.70;99.90;;;;;;5025410;28;20421;-80
2021/06/12 11:27:32;;;;;;;1.70;1.60;;;25.70;99.90;;;;;;5021032;28;20486;-79
2021/06/12 11:30:20;;;;;;;1.37;1.30;;;25.70;99.90;;;;;;5036309;28;20440;-80
2021/06/12 11:32:59;;;;;;;1.20;1.10;;;25.80;99.90;;;;;;5024393;28;20532;-79
2021/06/12 11:35:43;;;;;;;3.07;1.70;;;25.90;99.90;;;;;;5020508;28;20943;-79
2021/06/12 11:38:27;;;;;;;1.37;1.27;;;26.00;99.90;;;;;;5028989;28;20465;-78
2021/06/12 11:40:59;;;;;;;1.43;1.30;;;26.20;99.90;;;;;;5030969;28;20446;-78
2021/06/12 11:43:30;;;;;;;1.40;1.30;;;26.00;99.90;;;;;;5030419;28;20434;-79
2021/06/12 11:45:56;;;;;;;2.13;1.77;;;25.90;99.90;;;;;;5030526;28;20438;-79
2021/06/12 11:48:23;;;;;;;1.97;1.47;;;26.00;99.90;;;;;;5023886;28;20936;-78
2021/06/12 11:50:49;;;;;;;2.10;1.20;;;26.00;99.90;;;;;;5029193;28;20178;-77
2021/06/12 11:53:18;;;;;;;1.47;1.30;;;26.00;99.90;;;;;;5027332;28;20461;-78
2021/06/12 11:55:45;;;;;;;1.50;1.40;;;26.10;99.90;;;;;;5027846;28;20433;-78
2021/06/12 11:58:10;;;;;;;1.50;1.40;;;26.30;99.90;;;;;;5026860;28;20493;-79
2021/06/12 12:00:38;;;;;;;1.93;1.27;;;26.50;99.90;;;;;;5024584;28;20470;-79
2021/06/12 12:03:08;;;;;;;5.50;1.73;;;26.70;99.90;;;;;;5030386;28;20207;-79
2021/06/12 12:05:48;;;;;;;1.70;1.60;;;26.60;99.90;;;;;;5031759;28;20449;-80
2021/06/12 12:08:22;;;;;;;4.90;2.30;;;26.60;99.90;;;;;;5031606;28;20432;-78
2021/06/12 12:10:52;;;;;;;2.37;1.60;;;26.60;99.90;;;;;;5038913;28;20437;-78
2021/06/12 12:13:37;;;;;;;3.70;1.80;;;26.70;99.90;;;;;;5021282;28;20454;-79
2021/06/12 12:16:21;;;;;;;1.60;1.50;;;27.10;99.90;;;;;;5021080;28;20437;-78
2021/06/12 12:18:49;;;;;;;4.93;1.90;;;27.60;99.90;;;;;;5029737;28;20912;-81
2021/06/12 12:21:28;;;;;;;2.10;2.00;;;28.00;99.90;;;;;;5021912;28;20493;-79
2021/06/12 12:23:55;;;;;;;1.87;1.77;;;28.60;99.90;;;;;;5017821;28;20518;-79
2021/06/12 12:26:22;;;;;;;2.37;2.17;;;29.00;99.90;;;;;;5030293;28;20922;-80
2021/06/12 12:28:58;;;;;;;2.67;2.47;;;28.70;99.90;;;;;;5020209;28;21024;-78
2021/06/12 12:31:25;;;;;;;2.30;2.10;;;28.10;99.90;;;;;;5030169;28;20596;-80
2021/06/12 12:33:52;;;;;;;3.10;2.87;;;27.90;99.90;;;;;;5035311;28;20444;-80
2021/06/12 12:36:18;;;;;;;3.03;2.73;;;27.60;99.90;;;;;;5032417;28;20429;-78
2021/06/12 12:38:56;;;;;;;5.00;3.20;;;27.10;99.90;;;;;;5020699;28;20498;-79
2021/06/12 12:41:22;;;;;;;3.70;3.10;;;27.10;99.90;;;;;;5023567;28;20457;-78
2021/06/12 12:44:02;;;;;;;3.57;3.27;;;27.50;99.90;;;;;;5024282;28;20525;-80
2021/06/12 12:46:28;;;;;;;3.33;2.90;;;27.80;99.90;;;;;;5030294;28;20415;-78
2021/06/12 12:48:54;;;;;;;3.40;3.20;;;27.50;99.90;;;;;;5021027;28;20429;-78
2021/06/12 12:51:26;;;;;;;2.93;2.73;;;27.20;99.90;;;;;;5027514;28;20217;-79